Time;durP1;ratioP1;P1;durP2;ratioP2;P2;SDS_P1;SDS_P2;PMS_P1;PMS_P2;Temp;Humidity;BMP_temperature;BMP_pressure;BME280_temperature;BME280_humidity;BME280_pressure;Samples;Min_cycle;Max_cycle;Signal;HPM_P1;HPM_P2
2023/08/17 00:02:12;;;;;;;4.85;4.40;;;23.20;80.30;;;;;;5014228;28;20026;-63
2023/08/17 00:04:38;;;;;;;5.22;4.25;;;23.20;80.00;;;;;;5014078;28;20034;-65
2023/08/17 00:07:04;;;;;;;4.80;4.40;;;23.20;80.00;;;;;;5014904;28;20378;-64
2023/08/17 00:09:29;;;;;;;4.60;4.20;;;23.20;80.00;;;;;;5013365;28;20037;-63
2023/08/17 00:11:55;;;;;;;4.70;4.30;;;23.10;80.00;;;;;;5009186;28;20030;-64
2023/08/17 00:14:21;;;;;;;4.55;4.15;;;23.10;80.10;;;;;;5014316;28;20045;-64
2023/08/17 00:16:48;;;;;;;4.93;3.97;;;23.10;80.00;;;;;;5012918;28;20060;-65
2023/08/17 00:19:14;;;;;;;4.40;3.80;;;23.10;80.10;;;;;;5012888;28;20128;-65
2023/08/17 00:21:39;;;;;;;4.20;3.90;;;23.00;80.10;;;;;;5011682;28;20456;-65
2023/08/17 00:24:05;;;;;;;4.70;4.25;;;23.00;80.00;;;;;;5014172;28;20026;-64
2023/08/17 00:26:31;;;;;;;8.10;4.05;;;23.00;80.00;;;;;;5013641;28;20076;-64
2023/08/17 00:28:56;;;;;;;4.47;4.05;;;23.00;80.10;;;;;;5013978;28;20120;-65
2023/08/17 00:31:22;;;;;;;4.88;3.72;;;22.90;80.10;;;;;;5011521;28;20030;-64
2023/08/17 00:33:47;;;;;;;4.20;3.85;;;22.80;80.10;;;;;;5013150;28;20053;-64
2023/08/17 00:36:13;;;;;;;4.50;4.10;;;22.70;80.20;;;;;;5014216;28;20061;-63
2023/08/17 00:38:38;;;;;;;4.35;3.83;;;22.60;80.40;;;;;;5013871;28;20037;-64
2023/08/17 00:41:04;;;;;;;5.78;3.70;;;22.50;80.50;;;;;;5012592;28;20030;-64
2023/08/17 00:43:30;;;;;;;6.80;4.10;;;22.50;80.70;;;;;;5013547;28;20514;-64
2023/08/17 00:45:55;;;;;;;4.00;3.65;;;22.40;80.80;;;;;;5014302;28;20076;-64
2023/08/17 00:48:21;;;;;;;4.72;4.13;;;22.40;81.00;;;;;;5011983;28;20034;-64
2023/08/17 00:50:50;;;;;;;4.13;3.83;;;22.50;81.20;;;;;;5011657;28;20066;-64
2023/08/17 00:53:16;;;;;;;4.60;4.25;;;22.40;81.20;;;;;;5014221;28;20040;-64
2023/08/17 00:55:43;;;;;;;5.20;4.10;;;22.40;81.10;;;;;;5012102;28;20030;-63
2023/08/17 00:58:08;;;;;;;6.03;4.40;;;22.40;81.30;;;;;;5013516;28;20076;-65
2023/08/17 01:00:34;;;;;;;4.05;3.75;;;22.40;81.30;;;;;;5008058;28;20073;-64
2023/08/17 01:03:00;;;;;;;7.10;4.28;;;22.40;81.30;;;;;;5011849;28;20038;-64
2023/08/17 01:05:26;;;;;;;4.82;3.80;;;22.40;81.30;;;;;;5012982;28;20034;-63
2023/08/17 01:07:51;;;;;;;5.25;4.35;;;22.40;81.40;;;;;;5012019;28;20030;-64
2023/08/17 01:10:17;;;;;;;5.53;3.97;;;22.40;81.40;;;;;;5009605;28;20062;-63
2023/08/17 01:12:55;;;;;;;6.70;4.35;;;22.40;81.30;;;;;;5011115;28;20044;-64
2023/08/17 01:15:40;;;;;;;4.80;4.40;;;22.30;81.70;;;;;;5011472;28;20495;-65
2023/08/17 01:18:31;;;;;;;5.50;3.90;;;22.30;82.00;;;;;;5012792;28;20037;-64
2023/08/17 01:20:57;;;;;;;4.53;4.03;;;22.20;81.60;;;;;;5012986;28;20026;-64
2023/08/17 01:23:23;;;;;;;5.00;4.50;;;22.20;81.20;;;;;;4980462;28;20413;-63
2023/08/17 01:25:49;;;;;;;5.10;4.15;;;22.20;81.50;;;;;;5013163;28;20038;-64
2023/08/17 01:28:14;;;;;;;4.65;4.00;;;22.10;81.50;;;;;;5012311;28;20044;-64
2023/08/17 01:31:03;;;;;;;5.20;4.65;;;22.10;81.60;;;;;;5012271;28;20579;-63
2023/08/17 01:33:42;;;;;;;4.15;3.85;;;22.10;82.20;;;;;;5011254;28;20048;-64
2023/08/17 01:36:25;;;;;;;6.45;4.32;;;22.10;81.80;;;;;;5012474;28;20137;-64
2023/08/17 01:38:54;;;;;;;4.95;3.95;;;22.10;82.40;;;;;;5013164;28;20470;-64
2023/08/17 01:41:22;;;;;;;4.28;3.80;;;22.10;81.90;;;;;;5012507;28;20045;-64
2023/08/17 01:43:48;;;;;;;8.45;4.70;;;22.10;81.90;;;;;;5013343;28;20055;-64
2023/08/17 01:46:17;;;;;;;4.13;3.83;;;22.10;81.80;;;;;;4994245;28;20030;-64
2023/08/17 01:48:44;;;;;;;5.10;4.20;;;22.10;81.70;;;;;;5012601;28;21622;-64
2023/08/17 01:51:11;;;;;;;4.55;4.15;;;22.10;81.70;;;;;;5013355;28;20029;-64
2023/08/17 01:53:37;;;;;;;4.40;4.05;;;22.00;81.80;;;;;;5012657;28;20033;-63
2023/08/17 01:56:03;;;;;;;4.15;3.85;;;22.00;81.80;;;;;;4995874;28;20037;-64
2023/08/17 01:58:28;;;;;;;4.40;4.00;;;21.90;81.80;;;;;;5013663;28;20509;-64
2023/08/17 02:00:54;;;;;;;4.88;4.10;;;21.90;82.00;;;;;;5016537;28;20389;-64
2023/08/17 02:03:20;;;;;;;5.22;4.10;;;21.90;82.10;;;;;;5014944;28;20053;-65
2023/08/17 02:05:46;;;;;;;5.97;4.72;;;21.80;82.10;;;;;;5016328;28;20060;-64
2023/08/17 02:08:12;;;;;;;5.20;4.18;;;21.80;82.20;;;;;;5016230;28;20510;-65
2023/08/17 02:10:37;;;;;;;4.63;4.10;;;21.80;82.10;;;;;;5012200;28;20048;-63
2023/08/17 02:13:03;;;;;;;4.50;4.10;;;21.70;82.20;;;;;;5013694;28;20036;-64
2023/08/17 02:15:29;;;;;;;4.82;4.35;;;21.70;82.20;;;;;;5016352;28;20045;-64
2023/08/17 02:17:56;;;;;;;7.75;4.40;;;21.70;82.30;;;;;;5014992;28;20410;-63
2023/08/17 02:20:22;;;;;;;5.00;4.50;;;21.70;82.40;;;;;;5015674;28;20468;-64
2023/08/17 02:22:47;;;;;;;7.40;4.18;;;21.60;82.40;;;;;;5014504;28;20100;-64
2023/08/17 02:25:13;;;;;;;7.15;4.32;;;21.60;82.40;;;;;;5016945;28;20042;-64
2023/08/17 02:27:39;;;;;;;6.57;4.32;;;21.60;82.40;;;;;;5015938;28;20034;-64
2023/08/17 02:30:05;;;;;;;5.25;3.92;;;21.60;82.60;;;;;;5015465;28;20040;-64
2023/08/17 02:32:30;;;;;;;4.65;4.13;;;21.50;83.40;;;;;;5015366;28;20037;-64
2023/08/17 02:34:56;;;;;;;4.30;4.00;;;21.50;82.60;;;;;;5016642;28;20099;-63
2023/08/17 02:37:21;;;;;;;4.38;4.07;;;21.40;82.40;;;;;;5018154;28;20038;-64
2023/08/17 02:39:47;;;;;;;4.82;3.83;;;21.40;82.50;;;;;;5018023;28;20113;-64
2023/08/17 02:42:12;;;;;;;4.13;3.83;;;21.30;82.60;;;;;;5018528;28;20034;-64
2023/08/17 02:44:38;;;;;;;5.63;4.50;;;21.30;82.60;;;;;;5017708;28;20032;-64
2023/08/17 02:47:04;;;;;;;4.40;4.00;;;21.20;83.10;;;;;;5017509;28;20030;-64
2023/08/17 02:49:29;;;;;;;4.70;4.18;;;21.10;82.90;;;;;;5016733;28;20064;-63
2023/08/17 02:51:55;;;;;;;5.80;4.20;;;21.10;83.30;;;;;;5016555;28;20229;-62
2023/08/17 02:54:20;;;;;;;4.38;3.97;;;21.00;83.40;;;;;;5013451;28;20132;-63
2023/08/17 02:56:50;;;;;;;4.80;4.10;;;21.00;83.80;;;;;;5013636;28;20050;-64
2023/08/17 02:59:34;;;;;;;4.70;4.30;;;21.00;84.10;;;;;;5915678;23;20013;-64
2023/08/17 03:01:59;;;;;;;4.80;4.40;;;21.00;84.70;;;;;;5011693;28;20065;-63
2023/08/17 03:04:25;;;;;;;4.32;3.92;;;20.90;84.10;;;;;;5014764;28;20022;-64
2023/08/17 03:06:51;;;;;;;4.60;4.20;;;21.00;84.10;;;;;;5013345;28;20116;-63
2023/08/17 03:09:16;;;;;;;4.45;3.97;;;21.00;84.20;;;;;;5016150;28;20036;-63
2023/08/17 03:11:42;;;;;;;4.18;3.88;;;21.00;84.00;;;;;;4988269;28;20041;-62
2023/08/17 03:14:07;;;;;;;4.32;4.03;;;21.00;83.80;;;;;;4999234;28;20322;-63
2023/08/17 03:16:33;;;;;;;4.43;4.13;;;21.00;83.70;;;;;;4997417;28;20125;-62
2023/08/17 03:18:58;;;;;;;5.10;4.35;;;21.00;83.60;;;;;;4998265;28;20041;-62
2023/08/17 03:21:24;;;;;;;4.15;3.85;;;20.90;83.60;;;;;;4998892;28;20041;-63
2023/08/17 03:23:50;;;;;;;4.88;4.10;;;20.90;83.80;;;;;;4998517;28;20035;-63
2023/08/17 03:26:15;;;;;;;4.88;4.47;;;20.90;84.80;;;;;;4998046;28;20033;-63
2023/08/17 03:28:41;;;;;;;4.57;4.28;;;20.80;84.00;;;;;;4998466;28;20034;-63
2023/08/17 03:31:08;;;;;;;5.38;4.28;;;20.80;84.10;;;;;;4998256;28;20457;-63
2023/08/17 03:33:35;;;;;;;4.72;4.38;;;20.70;84.20;;;;;;4998085;28;20485;-63
2023/08/17 03:36:01;;;;;;;4.75;4.38;;;20.70;84.20;;;;;;4998880;28;20038;-63
2023/08/17 03:38:27;;;;;;;4.72;4.32;;;20.70;84.30;;;;;;4997270;28;20128;-62
2023/08/17 03:40:52;;;;;;;4.57;4.18;;;20.60;84.20;;;;;;4998623;28;20462;-62
2023/08/17 03:43:18;;;;;;;4.93;4.03;;;20.60;84.20;;;;;;4997771;28;20045;-63
2023/08/17 03:45:44;;;;;;;5.75;4.70;;;20.60;84.20;;;;;;4996852;28;20509;-64
2023/08/17 03:48:10;;;;;;;4.57;4.28;;;20.50;84.30;;;;;;4997825;28;20121;-63
2023/08/17 03:50:35;;;;;;;6.45;4.53;;;20.50;84.30;;;;;;4996243;28;20046;-63
2023/08/17 03:53:01;;;;;;;4.93;3.83;;;20.50;84.30;;;;;;4998081;28;20038;-64
2023/08/17 03:55:27;;;;;;;5.13;4.57;;;20.40;84.40;;;;;;4998027;28;20048;-62
2023/08/17 03:57:52;;;;;;;4.80;4.28;;;20.40;84.50;;;;;;4997629;28;20038;-63
2023/08/17 04:00:18;;;;;;;4.50;4.15;;;20.30;84.50;;;;;;4997059;28;20402;-63
2023/08/17 04:02:44;;;;;;;4.78;4.15;;;20.30;84.60;;;;;;4996374;28;20081;-64
2023/08/17 04:05:10;;;;;;;4.50;4.18;;;20.20;84.80;;;;;;4998055;28;20093;-63
2023/08/17 04:07:36;;;;;;;6.55;4.05;;;20.20;85.00;;;;;;4980479;28;20505;-63
2023/08/17 04:10:03;;;;;;;5.20;4.28;;;20.10;85.20;;;;;;4996814;28;20069;-63
2023/08/17 04:12:29;;;;;;;4.38;3.97;;;20.10;85.30;;;;;;4995777;28;20037;-63
2023/08/17 04:14:54;;;;;;;5.00;4.53;;;20.10;85.50;;;;;;4996818;28;20042;-61
2023/08/17 04:17:21;;;;;;;4.93;4.28;;;20.10;85.70;;;;;;4995731;28;20037;-64
2023/08/17 04:19:47;;;;;;;4.40;4.00;;;20.10;85.70;;;;;;4997095;28;20113;-64
2023/08/17 04:22:12;;;;;;;4.45;4.05;;;20.10;85.60;;;;;;4998096;28;20034;-63
2023/08/17 04:24:38;;;;;;;4.22;3.90;;;20.10;85.70;;;;;;4996227;28;20069;-63
2023/08/17 04:27:04;;;;;;;6.88;4.43;;;20.10;85.70;;;;;;4997291;28;20113;-64
2023/08/17 04:29:30;;;;;;;7.50;4.53;;;20.20;85.60;;;;;;4996732;28;20049;-61
2023/08/17 04:31:56;;;;;;;5.15;4.65;;;20.20;85.50;;;;;;4997502;28;20037;-63
2023/08/17 04:34:22;;;;;;;4.47;4.07;;;20.20;85.30;;;;;;4997099;28;20033;-64
2023/08/17 04:36:47;;;;;;;4.68;3.90;;;20.20;85.40;;;;;;4995986;28;20583;-63
2023/08/17 04:39:13;;;;;;;4.10;3.80;;;20.20;85.60;;;;;;4995978;28;20115;-63
2023/08/17 04:41:39;;;;;;;5.65;3.97;;;20.20;85.60;;;;;;4996045;28;20041;-63
2023/08/17 04:44:05;;;;;;;4.47;4.07;;;20.20;85.50;;;;;;4996614;28;20037;-63
2023/08/17 04:46:30;;;;;;;5.40;4.07;;;20.20;85.60;;;;;;4996548;28;20409;-63
2023/08/17 04:48:56;;;;;;;4.65;4.22;;;20.30;85.80;;;;;;4997173;28;20046;-61
2023/08/17 04:51:21;;;;;;;4.40;4.00;;;20.30;85.80;;;;;;4997012;28;20041;-64
2023/08/17 04:53:47;;;;;;;5.13;4.63;;;20.40;85.60;;;;;;4996526;28;20038;-63
2023/08/17 04:56:12;;;;;;;4.63;4.22;;;20.40;85.40;;;;;;4996526;28;20080;-63
2023/08/17 04:58:38;;;;;;;5.05;4.55;;;20.40;85.30;;;;;;4996311;28;20397;-63
2023/08/17 05:01:04;;;;;;;6.93;4.22;;;20.40;85.50;;;;;;4996462;28;20045;-61
2023/08/17 05:03:31;;;;;;;4.95;4.55;;;20.40;85.40;;;;;;4996272;28;20412;-63
2023/08/17 05:05:56;;;;;;;6.18;4.80;;;20.40;85.50;;;;;;4996764;28;20049;-63
2023/08/17 05:08:22;;;;;;;4.80;4.40;;;20.40;85.60;;;;;;4996782;28;20033;-63
2023/08/17 05:10:48;;;;;;;5.03;4.63;;;20.40;85.70;;;;;;4999574;28;20057;-63
2023/08/17 05:13:13;;;;;;;4.68;4.28;;;20.50;86.00;;;;;;5013606;28;20037;-64
2023/08/17 05:15:39;;;;;;;5.20;4.70;;;20.50;86.20;;;;;;5012900;28;20052;-64
2023/08/17 05:18:05;;;;;;;4.88;4.47;;;20.50;86.20;;;;;;5011366;28;20042;-63
2023/08/17 05:20:31;;;;;;;5.65;5.00;;;20.60;86.40;;;;;;5011336;28;20107;-63
2023/08/17 05:22:56;;;;;;;5.93;4.22;;;20.60;86.20;;;;;;5012424;28;20147;-63
2023/08/17 05:25:22;;;;;;;4.68;4.28;;;20.60;86.20;;;;;;5011634;28;20037;-63
2023/08/17 05:27:49;;;;;;;5.47;4.70;;;20.70;86.20;;;;;;5011656;28;20154;-63
2023/08/17 05:30:15;;;;;;;4.95;4.43;;;20.70;86.20;;;;;;5014010;28;20073;-63
2023/08/17 05:32:41;;;;;;;5.20;4.80;;;20.70;86.10;;;;;;5013272;28;20065;-63
2023/08/17 05:35:07;;;;;;;4.38;3.97;;;20.80;86.00;;;;;;5017403;28;20080;-63
2023/08/17 05:37:32;;;;;;;4.30;3.90;;;20.80;86.00;;;;;;5015711;28;20029;-62
2023/08/17 05:39:58;;;;;;;4.25;3.88;;;20.80;86.00;;;;;;5015408;28;20068;-61
2023/08/17 05:42:24;;;;;;;5.55;5.10;;;20.90;86.20;;;;;;5016242;28;20520;-64
2023/08/17 05:44:49;;;;;;;5.78;5.28;;;20.90;86.30;;;;;;5017556;28;20042;-63
2023/08/17 05:47:17;;;;;;;5.78;5.28;;;21.00;86.40;;;;;;5017599;28;20076;-63
2023/08/17 05:49:43;;;;;;;6.35;5.70;;;21.00;86.40;;;;;;5013969;28;20411;-63
2023/08/17 05:52:09;;;;;;;6.35;5.75;;;21.00;86.50;;;;;;5015486;28;20053;-63
2023/08/17 05:54:34;;;;;;;6.28;5.72;;;21.10;86.60;;;;;;5015059;28;20598;-63
2023/08/17 05:57:02;;;;;;;7.15;5.95;;;21.10;86.60;;;;;;5016683;28;20129;-63
2023/08/17 05:59:28;;;;;;;6.75;6.15;;;21.20;86.70;;;;;;5016259;28;20041;-61
2023/08/17 06:01:54;;;;;;;6.63;6.03;;;21.20;86.60;;;;;;5016464;28;20038;-64
2023/08/17 06:04:20;;;;;;;7.07;5.68;;;21.20;86.90;;;;;;5017339;28;20114;-64
2023/08/17 06:06:46;;;;;;;6.50;5.90;;;21.30;87.00;;;;;;5015821;28;20040;-63
2023/08/17 06:09:12;;;;;;;8.52;6.35;;;21.30;87.10;;;;;;5015781;28;20221;-63
2023/08/17 06:11:38;;;;;;;8.02;6.60;;;21.30;87.10;;;;;;5011119;28;20026;-63
2023/08/17 06:14:04;;;;;;;7.93;7.18;;;21.40;87.00;;;;;;5016850;28;20026;-63
2023/08/17 06:16:29;;;;;;;7.00;6.30;;;21.50;86.90;;;;;;5017749;28;20564;-62
2023/08/17 06:18:55;;;;;;;7.70;6.93;;;21.50;86.70;;;;;;5018040;28;20533;-64
2023/08/17 06:21:21;;;;;;;7.65;6.90;;;21.60;86.80;;;;;;5016875;28;20037;-64
2023/08/17 06:23:47;;;;;;;8.52;6.57;;;21.60;86.80;;;;;;5018240;28;20435;-63
2023/08/17 06:26:15;;;;;;;9.30;6.75;;;21.60;86.90;;;;;;5018199;28;20034;-63
2023/08/17 06:28:41;;;;;;;8.93;7.47;;;21.70;87.40;;;;;;5015885;28;20673;-62
2023/08/17 06:31:06;;;;;;;8.40;6.75;;;21.70;87.30;;;;;;5016669;28;20041;-61
2023/08/17 06:33:32;;;;;;;7.90;6.38;;;21.80;87.10;;;;;;5015858;28;20560;-62
2023/08/17 06:35:58;;;;;;;10.13;7.10;;;21.80;87.10;;;;;;5015851;28;20116;-62
2023/08/17 06:38:23;;;;;;;10.05;7.07;;;21.90;87.30;;;;;;5016057;28;20026;-62
2023/08/17 06:40:49;;;;;;;12.48;7.28;;;21.90;87.20;;;;;;5012617;28;20047;-65
2023/08/17 06:43:14;;;;;;;11.45;7.80;;;22.00;87.20;;;;;;5017197;28;20555;-61
2023/08/17 06:45:40;;;;;;;12.05;7.25;;;22.10;87.10;;;;;;5014889;28;20045;-63
2023/08/17 06:48:06;;;;;;;12.93;7.30;;;22.10;86.90;;;;;;5015474;28;20446;-63
2023/08/17 06:50:31;;;;;;;9.10;6.88;;;22.20;86.90;;;;;;5015415;28;20073;-63
2023/08/17 06:52:57;;;;;;;14.15;6.88;;;22.20;87.00;;;;;;5015674;28;20493;-63
2023/08/17 06:55:23;;;;;;;10.25;6.90;;;22.30;87.10;;;;;;5015353;28;20043;-64
2023/08/17 06:57:51;;;;;;;15.48;7.03;;;22.40;87.10;;;;;;5016793;28;20549;-63
2023/08/17 07:00:20;;;;;;;10.77;7.72;;;22.40;86.70;;;;;;5016053;28;20128;-63
2023/08/17 07:02:49;;;;;;;10.02;8.15;;;22.40;87.00;;;;;;5014306;28;20061;-64
2023/08/17 07:05:15;;;;;;;10.90;8.13;;;22.50;87.00;;;;;;5015359;28;20038;-63
2023/08/17 07:07:42;;;;;;;11.68;7.88;;;22.50;87.00;;;;;;5013763;28;20033;-64
2023/08/17 07:10:08;;;;;;;12.07;8.07;;;22.60;86.90;;;;;;5013539;28;20048;-61
2023/08/17 07:12:33;;;;;;;9.50;7.10;;;22.70;86.40;;;;;;5012627;28;20076;-64
2023/08/17 07:14:59;;;;;;;13.75;8.32;;;22.70;86.20;;;;;;5011609;28;20693;-63
2023/08/17 07:17:25;;;;;;;8.40;7.60;;;22.80;86.30;;;;;;5015053;28;20033;-63
2023/08/17 07:19:50;;;;;;;8.10;7.35;;;22.80;86.10;;;;;;5015150;28;20036;-62
2023/08/17 07:22:16;;;;;;;7.65;6.85;;;22.90;86.10;;;;;;5014146;28;20544;-63
2023/08/17 07:24:42;;;;;;;8.35;7.55;;;23.00;86.00;;;;;;5012711;28;20053;-63
2023/08/17 07:27:08;;;;;;;6.80;6.18;;;23.00;86.00;;;;;;5015730;28;20485;-63
2023/08/17 07:29:33;;;;;;;10.77;6.13;;;23.10;85.20;;;;;;5015161;28;20038;-63
2023/08/17 07:32:01;;;;;;;7.57;6.43;;;23.20;85.00;;;;;;5015030;28;20488;-63
2023/08/17 07:34:28;;;;;;;7.70;6.40;;;23.30;85.30;;;;;;5013667;28;20037;-63
2023/08/17 07:36:53;;;;;;;6.25;5.53;;;23.40;85.30;;;;;;5014931;28;20128;-63
2023/08/17 07:39:19;;;;;;;6.80;4.65;;;23.50;84.70;;;;;;5012881;28;20120;-62
2023/08/17 07:41:44;;;;;;;5.32;4.82;;;23.50;84.30;;;;;;5014096;28;20041;-62
2023/08/17 07:44:11;;;;;;;6.45;5.85;;;23.60;83.90;;;;;;5013831;28;20306;-64
2023/08/17 07:46:36;;;;;;;8.73;6.80;;;23.80;83.60;;;;;;5013899;28;20057;-62
2023/08/17 07:49:02;;;;;;;6.15;5.57;;;23.80;83.10;;;;;;5015362;28;20291;-63
2023/08/17 07:51:29;;;;;;;6.03;5.53;;;23.90;82.70;;;;;;5014513;28;20452;-63
2023/08/17 07:53:55;;;;;;;5.15;4.75;;;24.00;82.70;;;;;;5010928;28;20038;-63
2023/08/17 07:56:21;;;;;;;4.85;4.28;;;24.00;82.90;;;;;;4993400;28;20847;-64
2023/08/17 07:58:46;;;;;;;4.63;4.28;;;24.10;81.70;;;;;;5013254;28;20038;-64
2023/08/17 08:01:12;;;;;;;5.35;4.32;;;24.10;81.50;;;;;;5013663;28;20048;-65
2023/08/17 08:03:37;;;;;;;5.32;4.72;;;24.20;81.50;;;;;;5009750;28;20053;-62
2023/08/17 08:06:03;;;;;;;5.18;4.75;;;24.30;81.50;;;;;;5013688;28;20754;-63
2023/08/17 08:08:28;;;;;;;5.40;4.85;;;24.40;81.20;;;;;;5011825;28;20038;-64
2023/08/17 08:10:54;;;;;;;5.25;4.75;;;24.40;80.20;;;;;;5010973;28;20452;-63
2023/08/17 08:13:20;;;;;;;6.03;4.88;;;24.50;79.80;;;;;;5016387;28;20582;-62
2023/08/17 08:15:46;;;;;;;4.82;4.38;;;24.60;79.80;;;;;;5013851;28;20041;-63
2023/08/17 08:18:11;;;;;;;4.03;3.72;;;24.60;79.40;;;;;;5013349;28;20470;-63
2023/08/17 08:20:38;;;;;;;5.53;5.03;;;24.70;78.90;;;;;;5011343;28;20042;-63
2023/08/17 08:23:03;;;;;;;7.72;4.25;;;24.80;78.60;;;;;;5015570;28;20034;-63
2023/08/17 08:25:29;;;;;;;5.95;4.50;;;24.90;78.40;;;;;;5013846;28;20068;-63
2023/08/17 08:27:54;;;;;;;4.53;4.13;;;24.90;78.20;;;;;;5014356;28;20033;-64
2023/08/17 08:30:20;;;;;;;5.80;5.30;;;25.00;78.20;;;;;;5015769;28;20041;-63
2023/08/17 08:32:46;;;;;;;5.45;4.80;;;25.10;77.60;;;;;;5014263;28;20061;-64
2023/08/17 08:35:11;;;;;;;5.32;4.60;;;25.10;77.40;;;;;;5015660;28;20042;-63
2023/08/17 08:37:37;;;;;;;5.75;4.88;;;25.20;77.60;;;;;;5014834;28;20038;-64
2023/08/17 08:40:03;;;;;;;6.30;5.38;;;25.30;77.80;;;;;;5013176;28;20523;-64
2023/08/17 08:42:28;;;;;;;7.20;5.47;;;25.40;77.30;;;;;;5015424;28;20049;-63
2023/08/17 08:44:54;;;;;;;9.93;5.32;;;25.50;76.70;;;;;;5014727;28;20344;-63
2023/08/17 08:47:21;;;;;;;5.13;4.63;;;25.50;76.50;;;;;;5014405;28;20099;-63
2023/08/17 08:49:59;;;;;;;6.00;4.97;;;25.60;76.60;;;;;;5015611;28;20037;-63
2023/08/17 08:52:34;;;;;;;5.40;4.90;;;25.60;76.80;;;;;;5014798;28;20095;-63
2023/08/17 08:55:09;;;;;;;6.28;5.60;;;25.70;77.80;;;;;;5017237;28;20041;-63
2023/08/17 08:57:36;;;;;;;6.20;5.60;;;25.80;76.50;;;;;;5017729;28;20038;-63
2023/08/17 09:00:03;;;;;;;5.55;5.05;;;25.90;76.50;;;;;;5016700;28;20088;-64
2023/08/17 09:02:30;;;;;;;5.50;4.97;;;26.00;76.00;;;;;;5016326;28;20520;-63
2023/08/17 09:04:56;;;;;;;5.65;4.88;;;26.00;76.00;;;;;;5020382;28;20033;-63
2023/08/17 09:07:23;;;;;;;7.80;5.45;;;26.10;76.60;;;;;;5020283;28;20034;-64
2023/08/17 09:09:49;;;;;;;6.70;5.68;;;26.20;76.00;;;;;;5019994;28;20167;-63
2023/08/17 09:12:14;;;;;;;7.22;5.72;;;26.20;75.40;;;;;;5019262;28;20120;-63
2023/08/17 09:14:40;;;;;;;6.55;5.25;;;26.30;75.40;;;;;;5017880;28;20065;-63
2023/08/17 09:17:06;;;;;;;5.47;4.95;;;26.40;75.60;;;;;;5020265;28;20083;-64
2023/08/17 09:19:33;;;;;;;6.82;5.43;;;26.50;75.70;;;;;;5020560;28;20480;-64
2023/08/17 09:21:59;;;;;;;6.07;5.28;;;26.50;75.60;;;;;;5003044;28;20034;-64
2023/08/17 09:24:34;;;;;;;6.20;5.47;;;26.60;75.20;;;;;;5020484;28;20030;-63
2023/08/17 09:27:00;;;;;;;6.90;5.30;;;26.70;73.40;;;;;;5020302;28;20388;-64
2023/08/17 09:29:25;;;;;;;6.90;5.32;;;26.70;74.10;;;;;;5021746;28;20335;-63
2023/08/17 09:31:51;;;;;;;7.97;5.07;;;26.80;74.20;;;;;;5020752;28;20122;-64
2023/08/17 09:34:18;;;;;;;6.53;5.32;;;26.80;74.30;;;;;;5019336;28;20033;-65
2023/08/17 09:36:47;;;;;;;6.43;5.25;;;26.90;74.10;;;;;;5017733;28;20378;-64
2023/08/17 09:39:12;;;;;;;6.22;5.63;;;27.00;73.70;;;;;;5019422;28;20037;-64
2023/08/17 09:41:40;;;;;;;6.93;5.68;;;27.00;72.90;;;;;;5022086;28;20049;-64
2023/08/17 09:44:07;;;;;;;6.35;4.68;;;27.10;72.80;;;;;;5019879;28;20026;-64
2023/08/17 09:46:33;;;;;;;6.85;5.43;;;27.20;72.90;;;;;;5020460;28;20168;-64
2023/08/17 09:48:58;;;;;;;5.28;4.78;;;27.20;72.70;;;;;;5020911;28;20581;-64
2023/08/17 09:51:24;;;;;;;6.50;5.07;;;27.40;73.40;;;;;;5021472;28;20030;-63
2023/08/17 09:53:53;;;;;;;9.02;6.15;;;27.40;73.00;;;;;;5019881;28;20120;-63
2023/08/17 09:56:23;;;;;;;9.48;6.30;;;27.50;72.30;;;;;;5021866;28;20057;-63
2023/08/17 09:58:49;;;;;;;6.50;5.80;;;27.60;72.20;;;;;;5019520;28;20030;-64
2023/08/17 10:01:15;;;;;;;5.45;5.05;;;27.70;71.80;;;;;;5021506;28;20038;-64
2023/08/17 10:03:45;;;;;;;5.65;5.00;;;27.70;72.10;;;;;;5017564;28;20041;-64
2023/08/17 10:06:15;;;;;;;5.45;4.25;;;27.80;70.90;;;;;;5020155;28;20411;-63
2023/08/17 10:08:43;;;;;;;3.92;3.60;;;27.80;71.10;;;;;;5018526;28;20485;-63
2023/08/17 10:11:10;;;;;;;5.20;4.55;;;27.90;71.20;;;;;;5017970;28;20121;-64
2023/08/17 10:13:52;;;;;;;4.72;4.18;;;27.90;70.60;;;;;;5019672;28;20149;-63
2023/08/17 10:16:23;;;;;;;3.65;3.30;;;28.00;69.20;;;;;;5016801;28;20030;-63
2023/08/17 10:19:07;;;;;;;3.90;3.70;;;28.10;71.00;;;;;;5000500;28;20029;-63
2023/08/17 10:21:39;;;;;;;5.72;3.63;;;28.10;70.00;;;;;;5015448;28;20505;-64
2023/08/17 10:24:07;;;;;;;4.40;3.60;;;28.30;70.10;;;;;;5014243;28;20033;-63
2023/08/17 10:26:33;;;;;;;4.90;3.72;;;28.30;70.00;;;;;;5018092;28;20038;-63
2023/08/17 10:29:01;;;;;;;3.38;3.17;;;28.40;69.50;;;;;;5014830;28;20033;-63
2023/08/17 10:31:28;;;;;;;3.22;2.90;;;28.50;69.40;;;;;;5018687;28;20037;-64
2023/08/17 10:33:54;;;;;;;3.40;3.10;;;28.50;69.00;;;;;;5016474;28;20092;-63
2023/08/17 10:36:20;;;;;;;3.30;2.85;;;28.60;68.60;;;;;;5017929;28;20026;-64
2023/08/17 10:38:46;;;;;;;3.45;3.03;;;28.70;68.10;;;;;;5014679;28;20030;-63
2023/08/17 10:41:13;;;;;;;5.60;3.08;;;28.80;67.90;;;;;;5018800;28;20040;-64
2023/08/17 10:43:56;;;;;;;4.55;2.50;;;28.90;67.90;;;;;;5016382;28;20108;-65
2023/08/17 10:46:21;;;;;;;3.08;2.78;;;29.00;67.80;;;;;;5017710;28;20091;-64
2023/08/17 10:48:47;;;;;;;2.83;2.63;;;29.00;67.50;;;;;;5016930;28;20038;-64
2023/08/17 10:51:13;;;;;;;3.05;2.75;;;29.10;67.60;;;;;;5018709;28;20381;-65
2023/08/17 10:53:44;;;;;;;3.45;2.50;;;29.30;66.60;;;;;;5018229;28;20124;-63
2023/08/17 10:56:14;;;;;;;2.97;2.60;;;29.30;66.30;;;;;;5021868;28;20049;-65
2023/08/17 10:58:43;;;;;;;5.22;3.22;;;29.40;66.20;;;;;;5007531;28;20030;-64
2023/08/17 11:01:09;;;;;;;3.53;3.22;;;29.50;64.90;;;;;;5015147;28;20494;-64
2023/08/17 11:03:36;;;;;;;2.97;2.78;;;29.50;64.50;;;;;;5016225;28;20077;-64
2023/08/17 11:06:15;;;;;;;4.93;2.63;;;29.60;64.50;;;;;;5017634;28;20056;-63
2023/08/17 11:08:55;;;;;;;3.67;2.47;;;29.60;63.50;;;;;;5014473;28;20046;-64
2023/08/17 11:11:22;;;;;;;2.88;2.67;;;29.60;63.20;;;;;;5014650;28;20034;-64
2023/08/17 11:13:49;;;;;;;3.65;2.75;;;29.70;64.10;;;;;;5016341;28;20037;-64
2023/08/17 11:16:16;;;;;;;2.65;2.33;;;29.70;63.60;;;;;;5017836;28;20036;-64
2023/08/17 11:18:44;;;;;;;3.28;2.60;;;29.80;62.90;;;;;;5015123;28;20140;-64
2023/08/17 11:21:10;;;;;;;3.22;2.60;;;29.80;63.10;;;;;;5017037;28;20117;-64
2023/08/17 11:23:37;;;;;;;2.63;2.42;;;29.90;62.80;;;;;;5016431;28;20571;-63
2023/08/17 11:26:03;;;;;;;4.30;2.28;;;29.90;61.80;;;;;;5016704;28;20046;-64
2023/08/17 11:28:36;;;;;;;2.50;2.30;;;30.00;61.40;;;;;;5013667;28;20496;-64
2023/08/17 11:31:07;;;;;;;2.85;2.50;;;30.00;60.90;;;;;;5016385;28;20042;-64
2023/08/17 11:33:34;;;;;;;3.30;3.00;;;30.10;59.90;;;;;;5016089;28;20065;-64
2023/08/17 11:36:02;;;;;;;3.42;2.28;;;30.10;59.70;;;;;;5017467;28;20038;-64
2023/08/17 11:38:32;;;;;;;2.70;2.50;;;30.10;60.50;;;;;;5013595;28;20095;-66
2023/08/17 11:40:59;;;;;;;2.85;2.65;;;30.10;61.00;;;;;;5014777;28;20599;-64
2023/08/17 11:43:25;;;;;;;2.95;2.60;;;30.10;60.30;;;;;;5015357;28;20107;-64
2023/08/17 11:45:51;;;;;;;3.25;2.60;;;30.10;60.10;;;;;;5015838;28;20509;-64
2023/08/17 11:48:19;;;;;;;3.58;2.80;;;30.10;60.10;;;;;;5015331;28;20037;-64
2023/08/17 11:50:45;;;;;;;3.75;2.75;;;30.20;60.00;;;;;;5013626;28;20041;-64
2023/08/17 11:53:11;;;;;;;2.60;2.40;;;30.20;60.30;;;;;;5014238;28;20038;-64
2023/08/17 11:55:36;;;;;;;2.67;2.47;;;30.30;60.60;;;;;;5017688;28;20615;-64
2023/08/17 11:58:03;;;;;;;4.03;2.55;;;30.30;60.70;;;;;;5018141;28;20037;-64
2023/08/17 12:00:44;;;;;;;2.95;2.47;;;30.40;60.20;;;;;;5016479;28;20053;-64
2023/08/17 12:03:14;;;;;;;2.70;2.50;;;30.50;59.50;;;;;;5017456;28;20038;-64
2023/08/17 12:05:40;;;;;;;3.97;2.60;;;30.60;60.10;;;;;;5017000;28;20116;-64
2023/08/17 12:08:07;;;;;;;3.45;2.67;;;30.60;59.80;;;;;;5017344;28;20030;-64
2023/08/17 12:10:34;;;;;;;2.92;2.63;;;30.70;59.90;;;;;;5012158;28;20509;-64
2023/08/17 12:13:01;;;;;;;2.60;2.40;;;30.80;60.00;;;;;;5014528;28;20056;-64
2023/08/17 12:15:36;;;;;;;3.67;2.38;;;30.80;60.10;;;;;;5016211;28;20131;-65
2023/08/17 12:18:04;;;;;;;3.03;2.47;;;30.90;59.70;;;;;;5014701;28;20504;-64
2023/08/17 12:20:35;;;;;;;3.08;2.75;;;30.90;59.80;;;;;;5013933;28;20046;-65
2023/08/17 12:23:02;;;;;;;2.70;2.50;;;31.00;59.60;;;;;;5017227;28;20052;-64
2023/08/17 12:25:27;;;;;;;4.05;2.60;;;31.10;59.40;;;;;;5014122;28;20073;-64
2023/08/17 12:27:53;;;;;;;5.38;2.30;;;31.20;59.50;;;;;;5016346;28;20064;-64
2023/08/17 12:30:25;;;;;;;4.88;3.05;;;31.20;59.30;;;;;;5015091;28;20034;-65
2023/08/17 12:32:50;;;;;;;3.05;2.45;;;31.30;58.40;;;;;;4997480;28;20041;-65
2023/08/17 12:35:16;;;;;;;3.65;2.90;;;31.30;58.80;;;;;;5015793;28;20099;-64
2023/08/17 12:37:41;;;;;;;5.22;2.80;;;31.30;59.00;;;;;;5015012;28;20042;-64
2023/08/17 12:40:08;;;;;;;2.80;2.50;;;31.40;58.20;;;;;;5010715;28;20034;-64
2023/08/17 12:42:33;;;;;;;2.70;2.30;;;31.40;58.50;;;;;;5014236;28;20594;-64
2023/08/17 12:44:59;;;;;;;2.95;2.63;;;31.40;58.30;;;;;;5014412;28;20034;-64